Terminal Aerodrome Forecast
Issued by NWS San Angelo, TX

Home | Current Version | Previous Version | Text Only | Print | Product List | Glossary On
Versions: 1 2 3 4 5 6 7 8 9 10 11 12 13 14 15 16 17 18 19 20
441
FTUS44 KSJT 221120
TAFSJT
TAF
KSJT 221120Z 2212/2312 23005KT P6SM SKC
     FM221400 27009KT P6SM SKC
     FM230000 20006KT P6SM SKC=

USA.gov is the U.S. government's official web portal to all federal, state and local government web resources and services.